sensor_id;sensor_type;location;lat;lon;timestamp;pressure;altitude;pressure_sealevel;temperature;humidity
60920;BME280;59039;52.108;19.942;2023-04-27T00:01:56;100694.51;;;5.18;60.02
60920;BME280;59039;52.108;19.942;2023-04-27T00:07:40;100696.95;;;5.12;59.75
60920;BME280;59039;52.108;19.942;2023-04-27T00:10:46;100691.73;;;5.08;59.82
60920;BME280;59039;52.108;19.942;2023-04-27T00:13:24;100694.95;;;5.02;60.08
60920;BME280;59039;52.108;19.942;2023-04-27T00:16:30;100698.06;;;4.99;59.98
60920;BME280;59039;52.108;19.942;2023-04-27T00:19:29;100701.73;;;4.96;60.13
60920;BME280;59039;52.108;19.942;2023-04-27T00:22:28;100703.15;;;4.91;60.28
60920;BME280;59039;52.108;19.942;2023-04-27T00:28:03;100702.12;;;4.83;60.69
60920;BME280;59039;52.108;19.942;2023-04-27T00:30:31;100705.42;;;4.79;60.39
60920;BME280;59039;52.108;19.942;2023-04-27T00:33:30;100709.35;;;4.75;60.21
60920;BME280;59039;52.108;19.942;2023-04-27T00:36:36;100714.80;;;4.69;60.32
60920;BME280;59039;52.108;19.942;2023-04-27T00:42:11;100714.30;;;4.58;61.05
60920;BME280;59039;52.108;19.942;2023-04-27T00:45:17;100713.85;;;4.55;60.65
60920;BME280;59039;52.108;19.942;2023-04-27T00:48:13;100716.27;;;4.51;61.34
60920;BME280;59039;52.108;19.942;2023-04-27T00:50:45;100721.60;;;4.49;61.51
60920;BME280;59039;52.108;19.942;2023-04-27T00:56:47;100721.61;;;4.44;61.35
60920;BME280;59039;52.108;19.942;2023-04-27T00:59:53;100722.70;;;4.41;61.43
60920;BME280;59039;52.108;19.942;2023-04-27T01:02:24;100725.02;;;4.38;61.85
60920;BME280;59039;52.108;19.942;2023-04-27T01:08:08;100720.13;;;4.34;61.63
60920;BME280;59039;52.108;19.942;2023-04-27T01:10:56;100722.08;;;4.32;61.99
60920;BME280;59039;52.108;19.942;2023-04-27T01:13:44;100723.11;;;4.30;61.82
60920;BME280;59039;52.108;19.942;2023-04-27T01:16:33;100723.95;;;4.28;61.99
60920;BME280;59039;52.108;19.942;2023-04-27T01:25:41;100722.45;;;4.24;62.15
60920;BME280;59039;52.108;19.942;2023-04-27T01:28:45;100724.87;;;4.23;63.32
60920;BME280;59039;52.108;19.942;2023-04-27T01:31:32;100727.52;;;4.23;63.13
60920;BME280;59039;52.108;19.942;2023-04-27T01:34:32;100728.48;;;4.22;62.37
60920;BME280;59039;52.108;19.942;2023-04-27T01:40:07;100725.12;;;4.16;62.48
60920;BME280;59039;52.108;19.942;2023-04-27T01:43:14;100730.70;;;4.14;63.05
60920;BME280;59039;52.108;19.942;2023-04-27T01:48:35;100726.33;;;4.10;62.72
60920;BME280;59039;52.108;19.942;2023-04-27T01:51:13;100727.00;;;4.07;62.44
60920;BME280;59039;52.108;19.942;2023-04-27T01:54:11;100731.05;;;4.06;62.68
60920;BME280;59039;52.108;19.942;2023-04-27T02:00:13;100734.04;;;4.02;62.83
60920;BME280;59039;52.108;19.942;2023-04-27T02:02:56;100733.36;;;3.98;63.24
60920;BME280;59039;52.108;19.942;2023-04-27T02:08:47;100737.17;;;3.95;63.14
60920;BME280;59039;52.108;19.942;2023-04-27T02:14:18;100742.26;;;3.91;63.54
60920;BME280;59039;52.108;19.942;2023-04-27T02:16:56;100737.59;;;3.89;62.76
60920;BME280;59039;52.108;19.942;2023-04-27T02:19:25;100741.52;;;3.87;63.24
60920;BME280;59039;52.108;19.942;2023-04-27T02:22:21;100741.48;;;3.84;62.77
60920;BME280;59039;52.108;19.942;2023-04-27T02:25:10;100743.76;;;3.80;63.27
60920;BME280;59039;52.108;19.942;2023-04-27T02:30:41;100738.91;;;3.72;63.23
60920;BME280;59039;52.108;19.942;2023-04-27T02:39:19;100734.31;;;3.60;63.40
60920;BME280;59039;52.108;19.942;2023-04-27T02:41:59;100740.08;;;3.58;63.62
60920;BME280;59039;52.108;19.942;2023-04-27T02:47:54;100744.91;;;3.52;63.74
60920;BME280;59039;52.108;19.942;2023-04-27T02:50:39;100748.23;;;3.48;64.08
60920;BME280;59039;52.108;19.942;2023-04-27T02:53:18;100747.33;;;3.45;63.43
60920;BME280;59039;52.108;19.942;2023-04-27T02:56:27;100752.16;;;3.42;64.00
60920;BME280;59039;52.108;19.942;2023-04-27T02:59:26;100749.40;;;3.41;64.00
60920;BME280;59039;52.108;19.942;2023-04-27T03:02:02;100746.63;;;3.39;64.27
60920;BME280;59039;52.108;19.942;2023-04-27T03:04:57;100745.24;;;3.39;64.32
60920;BME280;59039;52.108;19.942;2023-04-27T03:07:34;100747.73;;;3.36;64.24
60920;BME280;59039;52.108;19.942;2023-04-27T03:10:12;100752.02;;;3.34;64.50
60920;BME280;59039;52.108;19.942;2023-04-27T03:12:38;100756.98;;;3.31;64.25
60920;BME280;59039;52.108;19.942;2023-04-27T03:15:44;100761.60;;;3.29;64.34
60920;BME280;59039;52.108;19.942;2023-04-27T03:21:52;100765.36;;;3.26;66.03
60920;BME280;59039;52.108;19.942;2023-04-27T03:27:26;100774.70;;;3.24;64.63
60920;BME280;59039;52.108;19.942;2023-04-27T03:30:32;100774.06;;;3.22;64.95
60920;BME280;59039;52.108;19.942;2023-04-27T03:36:29;100778.41;;;3.19;65.19
60920;BME280;59039;52.108;19.942;2023-04-27T03:39:04;100781.85;;;3.18;65.79
60920;BME280;59039;52.108;19.942;2023-04-27T03:41:48;100779.17;;;3.18;65.34
60920;BME280;59039;52.108;19.942;2023-04-27T03:44:16;100780.39;;;3.19;66.22
60920;BME280;59039;52.108;19.942;2023-04-27T03:47:22;100779.57;;;3.20;66.13
60920;BME280;59039;52.108;19.942;2023-04-27T03:50:16;100781.93;;;3.22;65.91
60920;BME280;59039;52.108;19.942;2023-04-27T03:53:23;100785.54;;;3.25;66.95
60920;BME280;59039;52.108;19.942;2023-04-27T03:56:01;100786.24;;;3.30;67.03
60920;BME280;59039;52.108;19.942;2023-04-27T03:59:07;100788.39;;;3.36;66.63
60920;BME280;59039;52.108;19.942;2023-04-27T04:04:21;100792.34;;;3.52;66.68
60920;BME280;59039;52.108;19.942;2023-04-27T04:07:28;100787.39;;;3.60;66.56
60920;BME280;59039;52.108;19.942;2023-04-27T04:10:23;100790.61;;;3.71;66.94
60920;BME280;59039;52.108;19.942;2023-04-27T04:13:19;100787.77;;;3.78;66.89
60920;BME280;59039;52.108;19.942;2023-04-27T04:18:58;100785.90;;;4.04;65.67
60920;BME280;59039;52.108;19.942;2023-04-27T04:24:29;100786.23;;;4.35;65.39
60920;BME280;59039;52.108;19.942;2023-04-27T04:26:57;100786.79;;;4.56;65.02
60920;BME280;59039;52.108;19.942;2023-04-27T04:29:46;100795.85;;;4.73;64.72
60920;BME280;59039;52.108;19.942;2023-04-27T04:32:26;100805.77;;;4.85;64.79
60920;BME280;59039;52.108;19.942;2023-04-27T04:35:15;100800.55;;;5.00;64.45
60920;BME280;59039;52.108;19.942;2023-04-27T04:49:15;100802.10;;;5.92;62.65
60920;BME280;59039;52.108;19.942;2023-04-27T04:51:49;100796.02;;;6.08;62.40
60920;BME280;59039;52.108;19.942;2023-04-27T04:54:35;100797.73;;;6.33;61.77
60920;BME280;59039;52.108;19.942;2023-04-27T04:57:24;100797.06;;;6.49;61.15
60920;BME280;59039;52.108;19.942;2023-04-27T05:00:19;100791.92;;;6.59;60.40
60920;BME280;59039;52.108;19.942;2023-04-27T05:02:58;100793.55;;;6.73;60.42
60920;BME280;59039;52.108;19.942;2023-04-27T05:08:19;100803.09;;;7.05;60.26
60920;BME280;59039;52.108;19.942;2023-04-27T05:13:33;100807.43;;;7.49;59.84
60920;BME280;59039;52.108;19.942;2023-04-27T05:19:03;100804.34;;;7.93;57.74
60920;BME280;59039;52.108;19.942;2023-04-27T05:21:38;100810.06;;;8.17;57.56
60920;BME280;59039;52.108;19.942;2023-04-27T05:24:11;100809.06;;;8.40;57.64
60920;BME280;59039;52.108;19.942;2023-04-27T05:27:18;100807.69;;;8.63;57.72
60920;BME280;59039;52.108;19.942;2023-04-27T05:29:54;100806.96;;;8.96;55.76
60920;BME280;59039;52.108;19.942;2023-04-27T05:32:31;100811.52;;;9.18;55.05
60920;BME280;59039;52.108;19.942;2023-04-27T05:35:19;100811.29;;;9.39;53.94
60920;BME280;59039;52.108;19.942;2023-04-27T05:38:08;100817.57;;;9.59;53.89
60920;BME280;59039;52.108;19.942;2023-04-27T05:40:56;100825.81;;;9.75;52.28
60920;BME280;59039;52.108;19.942;2023-04-27T05:43:35;100823.55;;;9.89;51.84
60920;BME280;59039;52.108;19.942;2023-04-27T05:49:17;100822.77;;;10.29;51.09
60920;BME280;59039;52.108;19.942;2023-04-27T05:52:03;100830.30;;;10.42;49.99
60920;BME280;59039;52.108;19.942;2023-04-27T05:54:28;100830.36;;;10.51;50.53
60920;BME280;59039;52.108;19.942;2023-04-27T05:59:43;100835.73;;;10.84;50.34
60920;BME280;59039;52.108;19.942;2023-04-27T06:02:08;100838.50;;;11.01;49.92
60920;BME280;59039;52.108;19.942;2023-04-27T06:04:56;100840.83;;;11.16;50.75
60920;BME280;59039;52.108;19.942;2023-04-27T06:10:14;100842.76;;;11.64;49.83
60920;BME280;59039;52.108;19.942;2023-04-27T06:13:03;100842.94;;;11.86;48.99
60920;BME280;59039;52.108;19.942;2023-04-27T06:15:45;100844.97;;;12.09;49.46
60920;BME280;59039;52.108;19.942;2023-04-27T06:18:13;100842.35;;;12.26;47.73
60920;BME280;59039;52.108;19.942;2023-04-27T06:21:10;100839.85;;;12.40;47.52
60920;BME280;59039;52.108;19.942;2023-04-27T06:23:55;100841.15;;;12.57;47.74
60920;BME280;59039;52.108;19.942;2023-04-27T06:26:36;100836.15;;;12.79;49.20
60920;BME280;59039;52.108;19.942;2023-04-27T06:29:13;100837.98;;;12.95;47.83
60920;BME280;59039;52.108;19.942;2023-04-27T06:31:45;100838.50;;;13.09;46.37
60920;BME280;59039;52.108;19.942;2023-04-27T06:34:20;100840.33;;;13.23;46.74
60920;BME280;59039;52.108;19.942;2023-04-27T06:36:45;100841.11;;;13.30;45.08
60920;BME280;59039;52.108;19.942;2023-04-27T06:39:21;100838.33;;;13.34;45.42
60920;BME280;59039;52.108;19.942;2023-04-27T06:41:50;100839.77;;;13.39;44.71
60920;BME280;59039;52.108;19.942;2023-04-27T06:44:18;100840.84;;;13.44;44.71
60920;BME280;59039;52.108;19.942;2023-04-27T06:46:46;100839.52;;;13.52;45.43
60920;BME280;59039;52.108;19.942;2023-04-27T06:49:11;100839.82;;;13.66;45.77
60920;BME280;59039;52.108;19.942;2023-04-27T06:51:37;100842.84;;;13.78;44.61
60920;BME280;59039;52.108;19.942;2023-04-27T06:54:02;100841.27;;;13.93;46.19
60920;BME280;59039;52.108;19.942;2023-04-27T06:56:30;100843.62;;;14.03;44.64
60920;BME280;59039;52.108;19.942;2023-04-27T06:59:01;100843.63;;;14.07;43.26
60920;BME280;59039;52.108;19.942;2023-04-27T07:01:26;100845.55;;;14.12;45.09
60920;BME280;59039;52.108;19.942;2023-04-27T07:03:55;100842.27;;;14.24;44.87
60920;BME280;59039;52.108;19.942;2023-04-27T07:06:41;100842.48;;;14.35;43.06
60920;BME280;59039;52.108;19.942;2023-04-27T07:09:15;100846.39;;;14.48;42.78
60920;BME280;59039;52.108;19.942;2023-04-27T07:11:40;100846.46;;;14.57;42.87
60920;BME280;59039;52.108;19.942;2023-04-27T07:14:08;100848.55;;;14.65;43.66
60920;BME280;59039;52.108;19.942;2023-04-27T07:16:37;100848.89;;;14.65;42.86
60920;BME280;59039;52.108;19.942;2023-04-27T07:19:23;100852.42;;;14.66;43.52
60920;BME280;59039;52.108;19.942;2023-04-27T07:21:48;100855.79;;;14.54;42.61
60920;BME280;59039;52.108;19.942;2023-04-27T07:24:34;100859.66;;;14.47;43.82
60920;BME280;59039;52.108;19.942;2023-04-27T07:27:04;100861.56;;;14.39;43.41
60920;BME280;59039;52.108;19.942;2023-04-27T07:29:32;100867.12;;;14.27;42.75
60920;BME280;59039;52.108;19.942;2023-04-27T07:32:38;100867.08;;;14.26;44.10
60920;BME280;59039;52.108;19.942;2023-04-27T07:35:06;100865.93;;;14.36;44.40
60920;BME280;59039;52.108;19.942;2023-04-27T07:37:53;100863.41;;;14.42;43.90
60920;BME280;59039;52.108;19.942;2023-04-27T07:40:23;100864.71;;;14.44;43.54
60920;BME280;59039;52.108;19.942;2023-04-27T07:42:51;100866.00;;;14.42;43.69
60920;BME280;59039;52.108;19.942;2023-04-27T07:48:12;100875.16;;;14.22;44.26
60920;BME280;59039;52.108;19.942;2023-04-27T07:51:08;100875.21;;;14.09;44.85
60920;BME280;59039;52.108;19.942;2023-04-27T07:53:37;100875.91;;;13.93;44.25
60920;BME280;59039;52.108;19.942;2023-04-27T07:56:18;100876.38;;;13.82;44.73
60920;BME280;59039;52.108;19.942;2023-04-27T07:58:45;100877.27;;;13.90;45.75
60920;BME280;59039;52.108;19.942;2023-04-27T08:01:13;100872.45;;;14.13;45.62
60920;BME280;59039;52.108;19.942;2023-04-27T08:03:44;100867.73;;;14.45;45.07
60920;BME280;59039;52.108;19.942;2023-04-27T08:06:09;100868.58;;;14.60;42.86
60920;BME280;59039;52.108;19.942;2023-04-27T08:08:41;100867.84;;;14.75;43.39
60920;BME280;59039;52.108;19.942;2023-04-27T08:11:12;100867.66;;;14.90;43.42
60920;BME280;59039;52.108;19.942;2023-04-27T08:16:21;100861.55;;;15.37;41.66
60920;BME280;59039;52.108;19.942;2023-04-27T08:19:01;100862.86;;;15.56;41.20
60920;BME280;59039;52.108;19.942;2023-04-27T08:21:26;100864.88;;;15.69;40.74
60920;BME280;59039;52.108;19.942;2023-04-27T08:23:54;100864.33;;;15.75;41.16
60920;BME280;59039;52.108;19.942;2023-04-27T08:26:23;100866.83;;;15.78;40.77
60920;BME280;59039;52.108;19.942;2023-04-27T08:28:51;100869.33;;;15.73;40.49
60920;BME280;59039;52.108;19.942;2023-04-27T08:31:16;100866.70;;;15.72;40.53
60920;BME280;59039;52.108;19.942;2023-04-27T08:33:47;100862.69;;;15.80;41.32
60920;BME280;59039;52.108;19.942;2023-04-27T08:36:18;100861.27;;;15.80;41.25
60920;BME280;59039;52.108;19.942;2023-04-27T08:38:53;100863.91;;;15.92;40.81
60920;BME280;59039;52.108;19.942;2023-04-27T08:41:41;100858.09;;;15.99;40.17
60920;BME280;59039;52.108;19.942;2023-04-27T08:44:17;100862.81;;;15.93;39.72
60920;BME280;59039;52.108;19.942;2023-04-27T08:46:53;100864.95;;;15.81;39.80
60920;BME280;59039;52.108;19.942;2023-04-27T08:52:29;100867.16;;;15.41;40.56
60920;BME280;59039;52.108;19.942;2023-04-27T08:55:00;100870.81;;;15.17;41.12
60920;BME280;59039;52.108;19.942;2023-04-27T08:57:31;100870.70;;;15.00;41.83
60920;BME280;59039;52.108;19.942;2023-04-27T09:00:06;100866.61;;;14.84;41.99
60920;BME280;59039;52.108;19.942;2023-04-27T09:02:52;100865.73;;;14.70;42.73
60920;BME280;59039;52.108;19.942;2023-04-27T09:05:23;100861.73;;;14.54;42.18
60920;BME280;59039;52.108;19.942;2023-04-27T09:08:00;100861.64;;;14.45;42.55
60920;BME280;59039;52.108;19.942;2023-04-27T09:10:47;100860.40;;;14.38;42.79
60920;BME280;59039;52.108;19.942;2023-04-27T09:13:16;100862.14;;;14.27;42.12
60920;BME280;59039;52.108;19.942;2023-04-27T09:15:50;100864.84;;;14.16;42.79
60920;BME280;59039;52.108;19.942;2023-04-27T09:18:18;100861.18;;;14.04;41.79
60920;BME280;59039;52.108;19.942;2023-04-27T09:20:51;100858.01;;;13.93;41.80
60920;BME280;59039;52.108;19.942;2023-04-27T09:23:35;100855.42;;;13.83;42.28
60920;BME280;59039;52.108;19.942;2023-04-27T09:26:05;100855.06;;;13.73;42.92
60920;BME280;59039;52.108;19.942;2023-04-27T09:28:30;100849.64;;;13.65;43.00
60920;BME280;59039;52.108;19.942;2023-04-27T09:30:57;100850.88;;;13.56;42.06
60920;BME280;59039;52.108;19.942;2023-04-27T09:35:49;100855.70;;;13.40;41.14
60920;BME280;59039;52.108;19.942;2023-04-27T09:38:16;100858.05;;;13.26;40.84
60920;BME280;59039;52.108;19.942;2023-04-27T09:40:42;100860.55;;;13.11;40.39
60920;BME280;59039;52.108;19.942;2023-04-27T09:43:07;100861.34;;;12.95;40.19
60920;BME280;59039;52.108;19.942;2023-04-27T09:45:32;100861.52;;;12.79;40.01
60920;BME280;59039;52.108;19.942;2023-04-27T09:47:59;100866.34;;;12.62;40.37
60920;BME280;59039;52.108;19.942;2023-04-27T09:50:25;100875.04;;;12.46;41.04
60920;BME280;59039;52.108;19.942;2023-04-27T09:52:50;100880.86;;;12.28;43.22
60920;BME280;59039;52.108;19.942;2023-04-27T09:55:21;100885.04;;;12.14;44.57
60920;BME280;59039;52.108;19.942;2023-04-27T09:57:57;100886.98;;;12.05;46.32
60920;BME280;59039;52.108;19.942;2023-04-27T10:03:06;100885.08;;;11.80;47.32
60920;BME280;59039;52.108;19.942;2023-04-27T10:05:45;100887.38;;;11.73;49.25
60920;BME280;59039;52.108;19.942;2023-04-27T10:08:14;100883.68;;;11.68;48.40
60920;BME280;59039;52.108;19.942;2023-04-27T10:10:47;100879.45;;;11.65;48.26
60920;BME280;59039;52.108;19.942;2023-04-27T10:13:23;100878.00;;;11.63;47.75
60920;BME280;59039;52.108;19.942;2023-04-27T10:15:49;100882.75;;;11.63;47.20
60920;BME280;59039;52.108;19.942;2023-04-27T10:18:30;100884.39;;;11.65;47.00
60920;BME280;59039;52.108;19.942;2023-04-27T10:20:55;100885.08;;;11.65;46.50
60920;BME280;59039;52.108;19.942;2023-04-27T10:23:23;100884.90;;;11.63;45.51
60920;BME280;59039;52.108;19.942;2023-04-27T10:25:48;100886.02;;;11.59;44.89
60920;BME280;59039;52.108;19.942;2023-04-27T10:28:15;100885.11;;;11.57;45.87
60920;BME280;59039;52.108;19.942;2023-04-27T10:30:43;100883.10;;;11.56;45.60
60920;BME280;59039;52.108;19.942;2023-04-27T10:33:10;100884.88;;;11.52;44.57
60920;BME280;59039;52.108;19.942;2023-04-27T10:35:54;100881.33;;;11.49;44.45
60920;BME280;59039;52.108;19.942;2023-04-27T10:38:21;100878.89;;;11.48;44.94
60920;BME280;59039;52.108;19.942;2023-04-27T10:40:59;100880.72;;;11.50;45.62
60920;BME280;59039;52.108;19.942;2023-04-27T10:43:25;100878.94;;;11.52;44.81
60920;BME280;59039;52.108;19.942;2023-04-27T10:45:51;100878.36;;;11.54;44.93
60920;BME280;59039;52.108;19.942;2023-04-27T10:48:17;100880.81;;;11.57;44.70
60920;BME280;59039;52.108;19.942;2023-04-27T10:50:42;100882.07;;;11.59;44.43
60920;BME280;59039;52.108;19.942;2023-04-27T10:53:07;100880.45;;;11.60;43.95
60920;BME280;59039;52.108;19.942;2023-04-27T10:55:34;100878.41;;;11.63;42.67
60920;BME280;59039;52.108;19.942;2023-04-27T10:57:59;100879.11;;;11.65;43.12
60920;BME280;59039;52.108;19.942;2023-04-27T11:00:28;100878.59;;;11.68;43.33
60920;BME280;59039;52.108;19.942;2023-04-27T11:02:55;100881.84;;;11.70;43.19
60920;BME280;59039;52.108;19.942;2023-04-27T11:05:25;100881.10;;;11.74;43.33
60920;BME280;59039;52.108;19.942;2023-04-27T11:07:51;100883.52;;;11.77;43.16
60920;BME280;59039;52.108;19.942;2023-04-27T11:10:17;100883.10;;;11.80;42.75
60920;BME280;59039;52.108;19.942;2023-04-27T11:12:44;100887.30;;;11.79;42.62
60920;BME280;59039;52.108;19.942;2023-04-27T11:15:09;100887.71;;;11.81;43.47
60920;BME280;59039;52.108;19.942;2023-04-27T11:17:34;100886.42;;;11.81;43.57
60920;BME280;59039;52.108;19.942;2023-04-27T11:20:00;100891.48;;;11.81;43.21
60920;BME280;59039;52.108;19.942;2023-04-27T11:22:25;100891.25;;;11.80;42.47
60920;BME280;59039;52.108;19.942;2023-04-27T11:24:51;100895.90;;;11.77;42.47
60920;BME280;59039;52.108;19.942;2023-04-27T11:27:17;100901.66;;;11.74;42.61
60920;BME280;59039;52.108;19.942;2023-04-27T11:29:43;100903.54;;;11.69;41.75
60920;BME280;59039;52.108;19.942;2023-04-27T11:32:21;100902.39;;;11.62;41.32
60920;BME280;59039;52.108;19.942;2023-04-27T11:34:51;100900.45;;;11.54;40.68
60920;BME280;59039;52.108;19.942;2023-04-27T11:37:22;100899.20;;;11.47;40.62
60920;BME280;59039;52.108;19.942;2023-04-27T11:39:47;100898.10;;;11.38;40.62
60920;BME280;59039;52.108;19.942;2023-04-27T11:42:19;100901.39;;;11.30;41.05
60920;BME280;59039;52.108;19.942;2023-04-27T11:44:55;100903.10;;;11.23;41.29
60920;BME280;59039;52.108;19.942;2023-04-27T11:47:21;100901.52;;;11.17;41.43
60920;BME280;59039;52.108;19.942;2023-04-27T11:49:50;100897.24;;;11.10;42.04
60920;BME280;59039;52.108;19.942;2023-04-27T11:52:16;100899.61;;;11.06;42.41
60920;BME280;59039;52.108;19.942;2023-04-27T11:54:52;100897.63;;;11.04;42.96
60920;BME280;59039;52.108;19.942;2023-04-27T11:57:31;100895.39;;;11.03;43.39
60920;BME280;59039;52.108;19.942;2023-04-27T11:59:58;100894.04;;;11.00;43.19
60920;BME280;59039;52.108;19.942;2023-04-27T12:02:24;100892.35;;;10.99;43.43
60920;BME280;59039;52.108;19.942;2023-04-27T12:04:50;100892.64;;;11.00;43.15
60920;BME280;59039;52.108;19.942;2023-04-27T12:07:15;100889.75;;;11.00;42.23
60920;BME280;59039;52.108;19.942;2023-04-27T12:09:41;100895.65;;;11.00;42.82
60920;BME280;59039;52.108;19.942;2023-04-27T12:12:07;100893.60;;;11.01;42.24
60920;BME280;59039;52.108;19.942;2023-04-27T12:14:32;100894.19;;;11.02;42.52
60920;BME280;59039;52.108;19.942;2023-04-27T12:16:58;100892.09;;;11.07;42.80
60920;BME280;59039;52.108;19.942;2023-04-27T12:19:26;100891.04;;;11.13;42.60
60920;BME280;59039;52.108;19.942;2023-04-27T12:21:51;100888.58;;;11.16;41.43
60920;BME280;59039;52.108;19.942;2023-04-27T12:24:17;100884.44;;;11.21;42.06
60920;BME280;59039;52.108;19.942;2023-04-27T12:26:52;100887.05;;;11.24;41.20
60920;BME280;59039;52.108;19.942;2023-04-27T12:29:24;100889.11;;;11.25;41.49
60920;BME280;59039;52.108;19.942;2023-04-27T12:31:50;100892.98;;;11.26;41.75
60920;BME280;59039;52.108;19.942;2023-04-27T12:34:15;100899.80;;;11.25;41.96
60920;BME280;59039;52.108;19.942;2023-04-27T12:36:41;100900.34;;;11.25;42.59
60920;BME280;59039;52.108;19.942;2023-04-27T12:39:17;100901.83;;;11.25;42.68
60920;BME280;59039;52.108;19.942;2023-04-27T12:41:43;100902.15;;;11.24;43.00
60920;BME280;59039;52.108;19.942;2023-04-27T12:44:09;100903.85;;;11.21;43.20
60920;BME280;59039;52.108;19.942;2023-04-27T12:46:34;100906.77;;;11.17;43.52
60920;BME280;59039;52.108;19.942;2023-04-27T12:49:00;100906.82;;;11.13;43.63
60920;BME280;59039;52.108;19.942;2023-04-27T12:51:26;100904.52;;;11.12;44.02
60920;BME280;59039;52.108;19.942;2023-04-27T12:53:51;100904.13;;;11.13;44.00
60920;BME280;59039;52.108;19.942;2023-04-27T12:56:17;100904.45;;;11.13;44.29
60920;BME280;59039;52.108;19.942;2023-04-27T12:58:42;100906.28;;;11.15;43.88
60920;BME280;59039;52.108;19.942;2023-04-27T13:01:07;100908.36;;;11.18;44.05
60920;BME280;59039;52.108;19.942;2023-04-27T13:03:32;100910.02;;;11.17;43.72
60920;BME280;59039;52.108;19.942;2023-04-27T13:05:58;100907.55;;;11.18;43.59
60920;BME280;59039;52.108;19.942;2023-04-27T13:08:23;100910.52;;;11.20;43.84
60920;BME280;59039;52.108;19.942;2023-04-27T13:10:49;100910.95;;;11.21;43.98
60920;BME280;59039;52.108;19.942;2023-04-27T13:13:16;100910.92;;;11.21;44.12
60920;BME280;59039;52.108;19.942;2023-04-27T13:15:42;100912.89;;;11.21;44.20
60920;BME280;59039;52.108;19.942;2023-04-27T13:18:07;100915.67;;;11.22;44.34
60920;BME280;59039;52.108;19.942;2023-04-27T13:20:32;100912.86;;;11.24;44.63
60920;BME280;59039;52.108;19.942;2023-04-27T13:23:03;100910.94;;;11.26;45.03
60920;BME280;59039;52.108;19.942;2023-04-27T13:25:37;100905.40;;;11.29;44.58
60920;BME280;59039;52.108;19.942;2023-04-27T13:28:03;100906.63;;;11.32;44.53
60920;BME280;59039;52.108;19.942;2023-04-27T13:30:29;100911.77;;;11.35;44.16
60920;BME280;59039;52.108;19.942;2023-04-27T13:32:54;100910.27;;;11.38;43.88
60920;BME280;59039;52.108;19.942;2023-04-27T13:35:20;100909.40;;;11.40;42.69
60920;BME280;59039;52.108;19.942;2023-04-27T13:37:46;100906.25;;;11.43;42.01
60920;BME280;59039;52.108;19.942;2023-04-27T13:40:11;100907.57;;;11.45;42.00
60920;BME280;59039;52.108;19.942;2023-04-27T13:42:47;100903.51;;;11.47;42.85
60920;BME280;59039;52.108;19.942;2023-04-27T13:45:15;100905.23;;;11.50;43.14
60920;BME280;59039;52.108;19.942;2023-04-27T13:47:43;100906.58;;;11.55;43.15
60920;BME280;59039;52.108;19.942;2023-04-27T13:50:09;100908.75;;;11.57;43.23
60920;BME280;59039;52.108;19.942;2023-04-27T13:52:36;100910.43;;;11.60;43.41
60920;BME280;59039;52.108;19.942;2023-04-27T13:55:22;100911.84;;;11.62;43.07
60920;BME280;59039;52.108;19.942;2023-04-27T13:57:56;100914.14;;;11.65;42.75
60920;BME280;59039;52.108;19.942;2023-04-27T14:00:22;100915.74;;;11.63;43.37
60920;BME280;59039;52.108;19.942;2023-04-27T14:02:47;100915.16;;;11.60;43.89
60920;BME280;59039;52.108;19.942;2023-04-27T14:05:12;100921.54;;;11.58;43.98
60920;BME280;59039;52.108;19.942;2023-04-27T14:07:37;100924.42;;;11.54;43.81
60920;BME280;59039;52.108;19.942;2023-04-27T14:10:03;100926.40;;;11.48;43.76
60920;BME280;59039;52.108;19.942;2023-04-27T14:12:32;100931.40;;;11.44;44.00
60920;BME280;59039;52.108;19.942;2023-04-27T14:14:57;100931.85;;;11.39;44.32
60920;BME280;59039;52.108;19.942;2023-04-27T14:17:23;100933.40;;;11.36;44.75
60920;BME280;59039;52.108;19.942;2023-04-27T14:19:48;100930.40;;;11.32;45.26
60920;BME280;59039;52.108;19.942;2023-04-27T14:22:23;100933.86;;;11.26;45.21
60920;BME280;59039;52.108;19.942;2023-04-27T14:24:48;100940.33;;;11.21;45.26
60920;BME280;59039;52.108;19.942;2023-04-27T14:27:14;100945.17;;;11.14;44.95
60920;BME280;59039;52.108;19.942;2023-04-27T14:29:39;100945.95;;;11.05;44.32
60920;BME280;59039;52.108;19.942;2023-04-27T14:32:05;100945.59;;;10.96;44.17
60920;BME280;59039;52.108;19.942;2023-04-27T14:34:30;100945.41;;;10.90;44.15
60920;BME280;59039;52.108;19.942;2023-04-27T14:36:55;100945.05;;;10.86;44.00
60920;BME280;59039;52.108;19.942;2023-04-27T14:39:21;100944.64;;;10.83;43.76
60920;BME280;59039;52.108;19.942;2023-04-27T14:41:46;100946.95;;;10.79;43.90
60920;BME280;59039;52.108;19.942;2023-04-27T14:44:15;100948.61;;;10.77;43.72
60920;BME280;59039;52.108;19.942;2023-04-27T14:46:40;100946.62;;;10.75;43.90
60920;BME280;59039;52.108;19.942;2023-04-27T14:49:05;100944.73;;;10.74;43.93
60920;BME280;59039;52.108;19.942;2023-04-27T14:51:31;100944.05;;;10.74;43.98
60920;BME280;59039;52.108;19.942;2023-04-27T14:53:57;100941.58;;;10.73;43.81
60920;BME280;59039;52.108;19.942;2023-04-27T14:56:22;100942.30;;;10.73;43.97
60920;BME280;59039;52.108;19.942;2023-04-27T14:58:47;100941.42;;;10.73;44.12
60920;BME280;59039;52.108;19.942;2023-04-27T15:01:13;100939.27;;;10.72;44.16
60920;BME280;59039;52.108;19.942;2023-04-27T15:03:38;100941.48;;;10.72;44.24
60920;BME280;59039;52.108;19.942;2023-04-27T15:06:03;100941.65;;;10.72;44.29
60920;BME280;59039;52.108;19.942;2023-04-27T15:08:29;100941.33;;;10.74;44.52
60920;BME280;59039;52.108;19.942;2023-04-27T15:10:54;100940.76;;;10.76;44.40